sensor_id;sensor_type;location;lat;lon;timestamp;pressure;altitude;pressure_sealevel;temperature;humidity
60355;BME280;46198;51.464;-0.066;2022-11-23T00:01:14;99304.31;;;4.33;100.00
60355;BME280;46198;51.464;-0.066;2022-11-23T00:03:45;99310.91;;;4.37;100.00
60355;BME280;46198;51.464;-0.066;2022-11-23T00:06:14;99304.28;;;4.40;100.00
60355;BME280;46198;51.464;-0.066;2022-11-23T00:08:43;99303.22;;;4.41;100.00
60355;BME280;46198;51.464;-0.066;2022-11-23T00:11:11;99307.50;;;4.49;100.00
60355;BME280;46198;51.464;-0.066;2022-11-23T00:13:40;99304.38;;;4.52;100.00
60355;BME280;46198;51.464;-0.066;2022-11-23T00:16:11;99302.31;;;4.54;100.00
60355;BME280;46198;51.464;-0.066;2022-11-23T00:18:40;99292.13;;;4.56;100.00
60355;BME280;46198;51.464;-0.066;2022-11-23T00:21:11;99290.75;;;4.78;100.00
60355;BME280;46198;51.464;-0.066;2022-11-23T00:23:41;99289.41;;;4.87;100.00
60355;BME280;46198;51.464;-0.066;2022-11-23T00:26:09;99290.63;;;4.92;100.00
60355;BME280;46198;51.464;-0.066;2022-11-23T00:28:38;99281.81;;;5.03;100.00
60355;BME280;46198;51.464;-0.066;2022-11-23T00:31:09;99279.59;;;5.00;100.00
60355;BME280;46198;51.464;-0.066;2022-11-23T00:33:37;99274.78;;;5.02;100.00
60355;BME280;46198;51.464;-0.066;2022-11-23T00:36:07;99274.38;;;5.05;100.00
60355;BME280;46198;51.464;-0.066;2022-11-23T00:38:37;99272.88;;;5.09;100.00
60355;BME280;46198;51.464;-0.066;2022-11-23T00:41:08;99270.16;;;5.09;100.00
60355;BME280;46198;51.464;-0.066;2022-11-23T00:43:36;99268.91;;;5.11;100.00
60355;BME280;46198;51.464;-0.066;2022-11-23T00:46:07;99270.34;;;5.14;100.00
60355;BME280;46198;51.464;-0.066;2022-11-23T00:48:35;99266.13;;;5.18;100.00
60355;BME280;46198;51.464;-0.066;2022-11-23T00:51:06;99265.94;;;5.20;100.00
60355;BME280;46198;51.464;-0.066;2022-11-23T00:53:35;99261.81;;;5.17;100.00
60355;BME280;46198;51.464;-0.066;2022-11-23T00:56:05;99266.00;;;5.13;100.00
60355;BME280;46198;51.464;-0.066;2022-11-23T00:58:34;99263.88;;;5.15;100.00
60355;BME280;46198;51.464;-0.066;2022-11-23T01:01:07;99262.25;;;5.14;100.00
60355;BME280;46198;51.464;-0.066;2022-11-23T01:03:36;99257.94;;;5.13;100.00
60355;BME280;46198;51.464;-0.066;2022-11-23T01:06:06;99264.34;;;5.12;100.00
60355;BME280;46198;51.464;-0.066;2022-11-23T01:08:35;99260.63;;;5.13;100.00
60355;BME280;46198;51.464;-0.066;2022-11-23T01:11:07;99254.19;;;5.14;100.00
60355;BME280;46198;51.464;-0.066;2022-11-23T01:13:36;99261.03;;;5.10;100.00
60355;BME280;46198;51.464;-0.066;2022-11-23T01:16:06;99259.19;;;5.10;100.00
60355;BME280;46198;51.464;-0.066;2022-11-23T01:18:36;99255.28;;;5.06;100.00
60355;BME280;46198;51.464;-0.066;2022-11-23T01:21:05;99255.25;;;5.13;100.00
60355;BME280;46198;51.464;-0.066;2022-11-23T01:23:33;99246.13;;;5.14;100.00
60355;BME280;46198;51.464;-0.066;2022-11-23T01:26:08;99250.28;;;5.10;100.00
60355;BME280;46198;51.464;-0.066;2022-11-23T01:28:38;99248.00;;;5.14;100.00
60355;BME280;46198;51.464;-0.066;2022-11-23T01:31:07;99242.97;;;5.17;100.00
60355;BME280;46198;51.464;-0.066;2022-11-23T01:33:36;99239.22;;;5.18;100.00
60355;BME280;46198;51.464;-0.066;2022-11-23T01:36:09;99232.38;;;5.22;100.00
60355;BME280;46198;51.464;-0.066;2022-11-23T01:38:37;99235.28;;;5.21;100.00
60355;BME280;46198;51.464;-0.066;2022-11-23T01:41:09;99223.69;;;5.20;100.00
60355;BME280;46198;51.464;-0.066;2022-11-23T01:43:39;99224.97;;;5.18;100.00
60355;BME280;46198;51.464;-0.066;2022-11-23T01:46:07;99224.59;;;5.14;100.00
60355;BME280;46198;51.464;-0.066;2022-11-23T01:48:38;99223.53;;;5.15;100.00
60355;BME280;46198;51.464;-0.066;2022-11-23T01:51:10;99211.34;;;5.13;100.00
60355;BME280;46198;51.464;-0.066;2022-11-23T01:53:40;99212.63;;;5.10;100.00
60355;BME280;46198;51.464;-0.066;2022-11-23T01:56:14;99218.44;;;5.07;100.00
60355;BME280;46198;51.464;-0.066;2022-11-23T01:58:46;99214.50;;;5.09;100.00
60355;BME280;46198;51.464;-0.066;2022-11-23T02:01:17;99210.38;;;5.07;100.00
60355;BME280;46198;51.464;-0.066;2022-11-23T02:03:49;99214.34;;;5.04;100.00
60355;BME280;46198;51.464;-0.066;2022-11-23T02:06:19;99199.47;;;5.02;100.00
60355;BME280;46198;51.464;-0.066;2022-11-23T02:08:49;99204.47;;;4.98;100.00
60355;BME280;46198;51.464;-0.066;2022-11-23T02:11:20;99196.66;;;4.97;100.00
60355;BME280;46198;51.464;-0.066;2022-11-23T02:13:51;99191.28;;;4.97;100.00
60355;BME280;46198;51.464;-0.066;2022-11-23T02:16:19;99197.06;;;4.94;100.00
60355;BME280;46198;51.464;-0.066;2022-11-23T02:18:48;99190.06;;;4.93;100.00
60355;BME280;46198;51.464;-0.066;2022-11-23T02:21:19;99185.13;;;4.89;100.00
60355;BME280;46198;51.464;-0.066;2022-11-23T02:23:58;99181.03;;;4.87;100.00
60355;BME280;46198;51.464;-0.066;2022-11-23T02:26:31;99185.44;;;4.81;100.00
60355;BME280;46198;51.464;-0.066;2022-11-23T02:29:05;99172.44;;;4.78;100.00
60355;BME280;46198;51.464;-0.066;2022-11-23T02:31:36;99165.38;;;4.77;100.00
60355;BME280;46198;51.464;-0.066;2022-11-23T02:34:11;99165.84;;;4.74;100.00
60355;BME280;46198;51.464;-0.066;2022-11-23T02:36:40;99163.84;;;4.70;100.00
60355;BME280;46198;51.464;-0.066;2022-11-23T02:39:10;99159.03;;;4.72;100.00
60355;BME280;46198;51.464;-0.066;2022-11-23T02:41:42;99142.69;;;4.73;100.00
60355;BME280;46198;51.464;-0.066;2022-11-23T02:44:19;99135.66;;;4.72;100.00
60355;BME280;46198;51.464;-0.066;2022-11-23T02:46:52;99141.03;;;4.72;100.00
60355;BME280;46198;51.464;-0.066;2022-11-23T02:49:20;99133.22;;;4.71;100.00
60355;BME280;46198;51.464;-0.066;2022-11-23T02:51:50;99134.47;;;4.68;100.00
60355;BME280;46198;51.464;-0.066;2022-11-23T02:54:18;99137.16;;;4.68;100.00
60355;BME280;46198;51.464;-0.066;2022-11-23T02:56:48;99133.25;;;4.64;100.00
60355;BME280;46198;51.464;-0.066;2022-11-23T02:59:17;99134.31;;;4.63;100.00
60355;BME280;46198;51.464;-0.066;2022-11-23T03:01:51;99136.41;;;4.61;100.00
60355;BME280;46198;51.464;-0.066;2022-11-23T03:04:20;99131.72;;;4.56;100.00
60355;BME280;46198;51.464;-0.066;2022-11-23T03:06:54;99129.22;;;4.55;100.00
60355;BME280;46198;51.464;-0.066;2022-11-23T03:09:22;99127.00;;;4.52;100.00
60355;BME280;46198;51.464;-0.066;2022-11-23T03:11:54;99116.00;;;4.53;100.00
60355;BME280;46198;51.464;-0.066;2022-11-23T03:14:24;99106.31;;;4.52;100.00
60355;BME280;46198;51.464;-0.066;2022-11-23T03:16:57;99098.69;;;4.49;100.00
60355;BME280;46198;51.464;-0.066;2022-11-23T03:19:28;99092.34;;;4.43;100.00
60355;BME280;46198;51.464;-0.066;2022-11-23T03:21:57;99096.28;;;4.41;100.00
60355;BME280;46198;51.464;-0.066;2022-11-23T03:24:29;99089.28;;;4.40;100.00
60355;BME280;46198;51.464;-0.066;2022-11-23T03:27:00;99089.34;;;4.33;100.00
60355;BME280;46198;51.464;-0.066;2022-11-23T03:29:28;99095.53;;;4.34;100.00
60355;BME280;46198;51.464;-0.066;2022-11-23T03:32:00;99085.47;;;4.29;100.00
60355;BME280;46198;51.464;-0.066;2022-11-23T03:34:28;99086.72;;;4.27;100.00
60355;BME280;46198;51.464;-0.066;2022-11-23T03:36:57;99085.31;;;4.24;100.00
60355;BME280;46198;51.464;-0.066;2022-11-23T03:39:25;99082.81;;;4.22;100.00
60355;BME280;46198;51.464;-0.066;2022-11-23T03:42:04;99081.19;;;4.21;100.00
60355;BME280;46198;51.464;-0.066;2022-11-23T03:44:33;99076.03;;;4.20;100.00
60355;BME280;46198;51.464;-0.066;2022-11-23T03:47:03;99075.81;;;4.21;100.00
60355;BME280;46198;51.464;-0.066;2022-11-23T03:49:34;99071.72;;;4.19;100.00
60355;BME280;46198;51.464;-0.066;2022-11-23T03:52:02;99060.06;;;4.25;100.00
60355;BME280;46198;51.464;-0.066;2022-11-23T03:54:30;99059.56;;;4.35;100.00
60355;BME280;46198;51.464;-0.066;2022-11-23T03:56:58;99044.47;;;4.34;100.00
60355;BME280;46198;51.464;-0.066;2022-11-23T03:59:28;99045.91;;;4.36;100.00
60355;BME280;46198;51.464;-0.066;2022-11-23T04:01:56;99050.97;;;4.44;100.00
60355;BME280;46198;51.464;-0.066;2022-11-23T04:04:26;99048.91;;;4.65;100.00
60355;BME280;46198;51.464;-0.066;2022-11-23T04:07:06;99049.63;;;4.72;100.00
60355;BME280;46198;51.464;-0.066;2022-11-23T04:09:39;99043.50;;;4.83;100.00
60355;BME280;46198;51.464;-0.066;2022-11-23T04:12:34;99041.53;;;4.91;100.00
60355;BME280;46198;51.464;-0.066;2022-11-23T04:15:04;99032.44;;;4.92;100.00
60355;BME280;46198;51.464;-0.066;2022-11-23T04:17:33;99031.06;;;5.01;100.00
60355;BME280;46198;51.464;-0.066;2022-11-23T04:20:02;99037.66;;;5.05;100.00
60355;BME280;46198;51.464;-0.066;2022-11-23T04:22:31;99036.25;;;5.14;100.00
60355;BME280;46198;51.464;-0.066;2022-11-23T04:24:59;99041.19;;;5.17;100.00
60355;BME280;46198;51.464;-0.066;2022-11-23T04:27:27;99038.63;;;5.22;100.00
60355;BME280;46198;51.464;-0.066;2022-11-23T04:29:56;99035.16;;;5.33;100.00
60355;BME280;46198;51.464;-0.066;2022-11-23T04:32:25;99035.88;;;5.41;100.00
60355;BME280;46198;51.464;-0.066;2022-11-23T04:34:54;99027.69;;;5.47;100.00
60355;BME280;46198;51.464;-0.066;2022-11-23T04:37:22;99028.63;;;5.53;100.00
60355;BME280;46198;51.464;-0.066;2022-11-23T04:39:51;99023.25;;;5.53;100.00
60355;BME280;46198;51.464;-0.066;2022-11-23T04:42:25;99019.66;;;5.59;100.00
60355;BME280;46198;51.464;-0.066;2022-11-23T04:44:57;99019.31;;;5.67;100.00
60355;BME280;46198;51.464;-0.066;2022-11-23T04:47:31;99015.44;;;5.63;100.00
60355;BME280;46198;51.464;-0.066;2022-11-23T04:50:06;99006.53;;;5.63;100.00
60355;BME280;46198;51.464;-0.066;2022-11-23T04:52:35;99007.34;;;5.63;100.00
60355;BME280;46198;51.464;-0.066;2022-11-23T04:55:08;99008.97;;;5.64;100.00
60355;BME280;46198;51.464;-0.066;2022-11-23T04:57:44;99003.59;;;5.64;100.00
60355;BME280;46198;51.464;-0.066;2022-11-23T05:00:13;99001.03;;;5.69;100.00
60355;BME280;46198;51.464;-0.066;2022-11-23T05:02:44;98995.66;;;5.69;100.00
60355;BME280;46198;51.464;-0.066;2022-11-23T05:05:33;98991.31;;;5.68;100.00
60355;BME280;46198;51.464;-0.066;2022-11-23T05:08:01;98985.34;;;5.66;100.00
60355;BME280;46198;51.464;-0.066;2022-11-23T05:10:44;98980.09;;;5.71;100.00
60355;BME280;46198;51.464;-0.066;2022-11-23T05:13:13;98982.78;;;5.71;100.00
60355;BME280;46198;51.464;-0.066;2022-11-23T05:15:42;98974.00;;;5.76;100.00
60355;BME280;46198;51.464;-0.066;2022-11-23T05:18:16;98987.09;;;5.72;100.00
60355;BME280;46198;51.464;-0.066;2022-11-23T05:20:48;98979.50;;;5.69;100.00
60355;BME280;46198;51.464;-0.066;2022-11-23T05:23:16;98988.63;;;5.68;100.00
60355;BME280;46198;51.464;-0.066;2022-11-23T05:25:44;98982.19;;;5.69;100.00
60355;BME280;46198;51.464;-0.066;2022-11-23T05:28:17;98972.34;;;5.63;100.00
60355;BME280;46198;51.464;-0.066;2022-11-23T05:31:06;98966.97;;;5.63;100.00
60355;BME280;46198;51.464;-0.066;2022-11-23T05:33:36;98962.28;;;5.59;100.00
60355;BME280;46198;51.464;-0.066;2022-11-23T05:36:08;98963.13;;;5.59;100.00
60355;BME280;46198;51.464;-0.066;2022-11-23T05:38:41;98955.13;;;5.64;100.00
60355;BME280;46198;51.464;-0.066;2022-11-23T05:41:14;98945.31;;;5.58;100.00
60355;BME280;46198;51.464;-0.066;2022-11-23T05:43:44;98942.75;;;5.63;100.00
60355;BME280;46198;51.464;-0.066;2022-11-23T05:46:19;98943.22;;;5.60;100.00
60355;BME280;46198;51.464;-0.066;2022-11-23T05:48:49;98938.28;;;5.57;100.00
60355;BME280;46198;51.464;-0.066;2022-11-23T05:51:17;98936.63;;;5.56;100.00
60355;BME280;46198;51.464;-0.066;2022-11-23T05:53:47;98936.19;;;5.59;100.00
60355;BME280;46198;51.464;-0.066;2022-11-23T05:56:22;98937.09;;;5.53;100.00
60355;BME280;46198;51.464;-0.066;2022-11-23T05:59:03;98926.72;;;5.57;100.00
60355;BME280;46198;51.464;-0.066;2022-11-23T06:01:34;98919.31;;;5.52;100.00
60355;BME280;46198;51.464;-0.066;2022-11-23T06:04:04;98917.13;;;5.49;100.00
60355;BME280;46198;51.464;-0.066;2022-11-23T06:06:39;98909.84;;;5.49;100.00
60355;BME280;46198;51.464;-0.066;2022-11-23T06:09:07;98897.78;;;5.52;100.00
60355;BME280;46198;51.464;-0.066;2022-11-23T06:11:38;98894.16;;;5.58;100.00
60355;BME280;46198;51.464;-0.066;2022-11-23T06:14:12;98892.03;;;5.72;100.00
60355;BME280;46198;51.464;-0.066;2022-11-23T06:16:43;98891.09;;;5.78;100.00
60355;BME280;46198;51.464;-0.066;2022-11-23T06:19:30;98893.19;;;5.88;100.00
60355;BME280;46198;51.464;-0.066;2022-11-23T06:21:59;98895.41;;;5.91;100.00
60355;BME280;46198;51.464;-0.066;2022-11-23T06:24:31;98883.38;;;5.93;100.00
60355;BME280;46198;51.464;-0.066;2022-11-23T06:27:38;98868.50;;;6.03;100.00
60355;BME280;46198;51.464;-0.066;2022-11-23T06:30:17;98861.72;;;6.29;100.00
60355;BME280;46198;51.464;-0.066;2022-11-23T06:32:46;98851.13;;;6.39;100.00
60355;BME280;46198;51.464;-0.066;2022-11-23T06:35:17;98833.41;;;6.43;100.00
60355;BME280;46198;51.464;-0.066;2022-11-23T06:37:46;98827.88;;;6.50;100.00
60355;BME280;46198;51.464;-0.066;2022-11-23T06:40:15;98819.53;;;6.51;100.00
60355;BME280;46198;51.464;-0.066;2022-11-23T06:42:46;98821.53;;;6.73;100.00
60355;BME280;46198;51.464;-0.066;2022-11-23T06:45:19;98818.28;;;6.71;100.00
60355;BME280;46198;51.464;-0.066;2022-11-23T06:47:53;98804.53;;;6.72;100.00
60355;BME280;46198;51.464;-0.066;2022-11-23T06:50:22;98799.47;;;6.93;100.00
60355;BME280;46198;51.464;-0.066;2022-11-23T06:52:54;98801.00;;;7.05;100.00
60355;BME280;46198;51.464;-0.066;2022-11-23T06:55:33;98797.66;;;7.15;100.00
60355;BME280;46198;51.464;-0.066;2022-11-23T06:58:03;98783.53;;;7.30;100.00
60355;BME280;46198;51.464;-0.066;2022-11-23T07:00:32;98777.16;;;7.36;100.00
60355;BME280;46198;51.464;-0.066;2022-11-23T07:03:01;98763.84;;;7.51;100.00
60355;BME280;46198;51.464;-0.066;2022-11-23T07:05:39;98760.97;;;7.58;100.00
60355;BME280;46198;51.464;-0.066;2022-11-23T07:08:07;98753.44;;;7.60;100.00
60355;BME280;46198;51.464;-0.066;2022-11-23T07:10:35;98737.78;;;7.62;100.00
60355;BME280;46198;51.464;-0.066;2022-11-23T07:13:04;98730.56;;;7.68;100.00
60355;BME280;46198;51.464;-0.066;2022-11-23T07:15:34;98742.50;;;7.72;100.00
60355;BME280;46198;51.464;-0.066;2022-11-23T07:18:03;98738.09;;;7.88;100.00
60355;BME280;46198;51.464;-0.066;2022-11-23T07:20:33;98741.66;;;7.93;100.00
60355;BME280;46198;51.464;-0.066;2022-11-23T07:23:06;98741.97;;;7.97;100.00
60355;BME280;46198;51.464;-0.066;2022-11-23T07:25:36;98741.50;;;8.05;100.00
60355;BME280;46198;51.464;-0.066;2022-11-23T07:28:06;98752.84;;;8.02;100.00
60355;BME280;46198;51.464;-0.066;2022-11-23T07:30:34;98746.22;;;8.15;100.00
60355;BME280;46198;51.464;-0.066;2022-11-23T07:33:05;98741.31;;;8.12;100.00
60355;BME280;46198;51.464;-0.066;2022-11-23T07:35:37;98725.44;;;8.20;100.00
60355;BME280;46198;51.464;-0.066;2022-11-23T07:38:08;98745.13;;;8.16;100.00
60355;BME280;46198;51.464;-0.066;2022-11-23T07:40:37;98754.97;;;8.27;100.00
60355;BME280;46198;51.464;-0.066;2022-11-23T07:43:14;98734.44;;;8.26;100.00
60355;BME280;46198;51.464;-0.066;2022-11-23T07:45:47;98738.03;;;8.37;100.00
60355;BME280;46198;51.464;-0.066;2022-11-23T07:48:16;98725.41;;;8.42;100.00
60355;BME280;46198;51.464;-0.066;2022-11-23T07:50:46;98713.56;;;8.49;100.00
60355;BME280;46198;51.464;-0.066;2022-11-23T07:53:16;98725.53;;;8.58;100.00
60355;BME280;46198;51.464;-0.066;2022-11-23T07:55:44;98696.38;;;8.65;100.00
60355;BME280;46198;51.464;-0.066;2022-11-23T07:58:12;98685.53;;;8.65;100.00
60355;BME280;46198;51.464;-0.066;2022-11-23T08:00:40;98681.47;;;8.62;100.00
60355;BME280;46198;51.464;-0.066;2022-11-23T08:03:11;98662.56;;;8.68;100.00
60355;BME280;46198;51.464;-0.066;2022-11-23T08:05:56;98658.56;;;8.75;100.00
60355;BME280;46198;51.464;-0.066;2022-11-23T08:08:25;98663.13;;;8.70;100.00
60355;BME280;46198;51.464;-0.066;2022-11-23T08:10:54;98657.44;;;8.71;100.00
60355;BME280;46198;51.464;-0.066;2022-11-23T08:13:22;98651.00;;;8.77;100.00
60355;BME280;46198;51.464;-0.066;2022-11-23T08:15:52;98654.25;;;8.79;100.00
60355;BME280;46198;51.464;-0.066;2022-11-23T08:18:22;98638.88;;;8.85;100.00
60355;BME280;46198;51.464;-0.066;2022-11-23T08:20:53;98635.38;;;8.90;100.00
60355;BME280;46198;51.464;-0.066;2022-11-23T08:23:21;98629.41;;;8.93;100.00
60355;BME280;46198;51.464;-0.066;2022-11-23T08:25:52;98624.31;;;8.96;100.00
60355;BME280;46198;51.464;-0.066;2022-11-23T08:28:21;98633.25;;;8.97;100.00
60355;BME280;46198;51.464;-0.066;2022-11-23T08:30:49;98631.63;;;9.01;100.00
60355;BME280;46198;51.464;-0.066;2022-11-23T08:33:17;98611.09;;;9.10;100.00
60355;BME280;46198;51.464;-0.066;2022-11-23T08:35:45;98612.72;;;9.11;100.00
60355;BME280;46198;51.464;-0.066;2022-11-23T08:38:13;98607.88;;;9.13;100.00
60355;BME280;46198;51.464;-0.066;2022-11-23T08:40:42;98607.88;;;9.18;100.00
60355;BME280;46198;51.464;-0.066;2022-11-23T08:43:11;98600.63;;;9.34;100.00
60355;BME280;46198;51.464;-0.066;2022-11-23T08:45:40;98604.13;;;9.29;100.00
60355;BME280;46198;51.464;-0.066;2022-11-23T08:48:08;98590.88;;;9.33;100.00
60355;BME280;46198;51.464;-0.066;2022-11-23T08:50:36;98586.00;;;9.35;100.00
60355;BME280;46198;51.464;-0.066;2022-11-23T08:53:05;98579.25;;;9.38;100.00
60355;BME280;46198;51.464;-0.066;2022-11-23T08:55:33;98572.22;;;9.37;100.00
60355;BME280;46198;51.464;-0.066;2022-11-23T08:58:01;98570.84;;;9.44;100.00
60355;BME280;46198;51.464;-0.066;2022-11-23T09:00:32;98584.94;;;9.41;100.00
60355;BME280;46198;51.464;-0.066;2022-11-23T09:03:02;98567.88;;;9.41;100.00
60355;BME280;46198;51.464;-0.066;2022-11-23T09:05:31;98560.31;;;9.48;100.00
60355;BME280;46198;51.464;-0.066;2022-11-23T09:08:00;98561.94;;;9.54;100.00
60355;BME280;46198;51.464;-0.066;2022-11-23T09:10:28;98563.56;;;9.50;100.00
60355;BME280;46198;51.464;-0.066;2022-11-23T09:12:57;98567.34;;;9.54;100.00
60355;BME280;46198;51.464;-0.066;2022-11-23T09:15:25;98560.31;;;9.53;100.00
60355;BME280;46198;51.464;-0.066;2022-11-23T09:17:55;98574.94;;;9.52;100.00
60355;BME280;46198;51.464;-0.066;2022-11-23T09:20:23;98585.53;;;9.59;100.00
60355;BME280;46198;51.464;-0.066;2022-11-23T09:22:51;98608.25;;;9.58;100.00
60355;BME280;46198;51.464;-0.066;2022-11-23T09:25:21;98631.84;;;9.57;100.00
60355;BME280;46198;51.464;-0.066;2022-11-23T09:27:55;98627.00;;;9.64;100.00
60355;BME280;46198;51.464;-0.066;2022-11-23T09:30:24;98617.78;;;9.75;100.00
60355;BME280;46198;51.464;-0.066;2022-11-23T09:32:55;98626.19;;;9.74;100.00
60355;BME280;46198;51.464;-0.066;2022-11-23T09:35:23;98629.19;;;9.77;100.00
60355;BME280;46198;51.464;-0.066;2022-11-23T09:37:55;98645.44;;;9.72;100.00
60355;BME280;46198;51.464;-0.066;2022-11-23T09:40:28;98661.44;;;9.84;100.00
60355;BME280;46198;51.464;-0.066;2022-11-23T09:43:09;98668.78;;;9.89;100.00
60355;BME280;46198;51.464;-0.066;2022-11-23T09:45:46;98675.25;;;9.88;100.00
60355;BME280;46198;51.464;-0.066;2022-11-23T09:48:28;98683.38;;;9.88;100.00
60355;BME280;46198;51.464;-0.066;2022-11-23T09:51:02;98693.16;;;9.89;100.00
60355;BME280;46198;51.464;-0.066;2022-11-23T09:53:35;98700.50;;;9.88;100.00
60355;BME280;46198;51.464;-0.066;2022-11-23T09:56:14;98699.41;;;9.89;100.00
60355;BME280;46198;51.464;-0.066;2022-11-23T09:58:43;98708.31;;;9.85;100.00
60355;BME280;46198;51.464;-0.066;2022-11-23T10:01:13;98711.06;;;9.90;100.00
60355;BME280;46198;51.464;-0.066;2022-11-23T10:03:44;98707.50;;;9.79;100.00
60355;BME280;46198;51.464;-0.066;2022-11-23T10:06:18;98725.38;;;9.75;100.00
60355;BME280;46198;51.464;-0.066;2022-11-23T10:08:54;98734.03;;;9.77;100.00
60355;BME280;46198;51.464;-0.066;2022-11-23T10:11:34;98741.38;;;9.76;100.00
60355;BME280;46198;51.464;-0.066;2022-11-23T10:14:14;98749.47;;;9.66;100.00
60355;BME280;46198;51.464;-0.066;2022-11-23T10:16:55;98753.22;;;9.60;100.00
60355;BME280;46198;51.464;-0.066;2022-11-23T10:19:34;98754.31;;;9.59;100.00
60355;BME280;46198;51.464;-0.066;2022-11-23T10:22:10;98757.59;;;9.61;100.00
60355;BME280;46198;51.464;-0.066;2022-11-23T10:24:45;98766.78;;;9.60;100.00
60355;BME280;46198;51.464;-0.066;2022-11-23T10:27:17;98770.03;;;9.62;100.00
60355;BME280;46198;51.464;-0.066;2022-11-23T10:29:47;98785.22;;;9.68;100.00
60355;BME280;46198;51.464;-0.066;2022-11-23T10:32:23;98780.34;;;9.65;100.00
60355;BME280;46198;51.464;-0.066;2022-11-23T10:35:00;98797.69;;;9.64;100.00
60355;BME280;46198;51.464;-0.066;2022-11-23T10:37:31;98796.31;;;9.62;100.00
60355;BME280;46198;51.464;-0.066;2022-11-23T10:39:59;98804.22;;;9.73;100.00
60355;BME280;46198;51.464;-0.066;2022-11-23T10:42:31;98817.78;;;9.73;100.00
60355;BME280;46198;51.464;-0.066;2022-11-23T10:45:17;98832.97;;;9.74;100.00
60355;BME280;46198;51.464;-0.066;2022-11-23T10:47:49;98827.78;;;9.68;100.00
60355;BME280;46198;51.464;-0.066;2022-11-23T10:50:48;98843.81;;;9.74;100.00
60355;BME280;46198;51.464;-0.066;2022-11-23T10:53:23;98841.09;;;9.69;100.00
60355;BME280;46198;51.464;-0.066;2022-11-23T10:56:00;98850.28;;;9.68;100.00
60355;BME280;46198;51.464;-0.066;2022-11-23T10:58:44;98862.78;;;9.74;100.00
60355;BME280;46198;51.464;-0.066;2022-11-23T11:01:14;98858.44;;;9.73;100.00
60355;BME280;46198;51.464;-0.066;2022-11-23T11:03:42;98876.56;;;9.68;100.00
60355;BME280;46198;51.464;-0.066;2022-11-23T11:06:20;98891.56;;;9.81;100.00
60355;BME280;46198;51.464;-0.066;2022-11-23T11:08:51;98902.94;;;9.83;100.00
60355;BME280;46198;51.464;-0.066;2022-11-23T11:11:23;98905.06;;;9.75;100.00
60355;BME280;46198;51.464;-0.066;2022-11-23T11:14:00;98912.75;;;9.89;100.00
60355;BME280;46198;51.464;-0.066;2022-11-23T11:16:32;98908.88;;;9.80;100.00
60355;BME280;46198;51.464;-0.066;2022-11-23T11:19:21;98919.75;;;9.85;100.00
60355;BME280;46198;51.464;-0.066;2022-11-23T11:21:50;98921.66;;;9.84;100.00
60355;BME280;46198;51.464;-0.066;2022-11-23T11:24:22;98928.97;;;9.84;100.00
60355;BME280;46198;51.464;-0.066;2022-11-23T11:26:59;98939.81;;;9.84;100.00
60355;BME280;46198;51.464;-0.066;2022-11-23T11:29:31;98930.34;;;9.86;100.00
60355;BME280;46198;51.464;-0.066;2022-11-23T11:32:08;98932.78;;;9.88;100.00
60355;BME280;46198;51.464;-0.066;2022-11-23T11:34:44;98938.53;;;9.96;100.00
60355;BME280;46198;51.464;-0.066;2022-11-23T11:37:20;98932.34;;;10.06;100.00
60355;BME280;46198;51.464;-0.066;2022-11-23T11:39:53;98929.38;;;10.08;100.00
60355;BME280;46198;51.464;-0.066;2022-11-23T11:42:29;98940.78;;;10.15;100.00
60355;BME280;46198;51.464;-0.066;2022-11-23T11:45:03;98944.88;;;10.17;100.00
60355;BME280;46198;51.464;-0.066;2022-11-23T11:47:36;98952.50;;;10.20;100.00
60355;BME280;46198;51.464;-0.066;2022-11-23T11:50:18;98957.38;;;10.18;100.00
60355;BME280;46198;51.464;-0.066;2022-11-23T11:53:00;98959.56;;;10.21;100.00
60355;BME280;46198;51.464;-0.066;2022-11-23T11:55:40;98966.88;;;10.21;100.00
60355;BME280;46198;51.464;-0.066;2022-11-23T11:58:14;98971.03;;;10.29;100.00
60355;BME280;46198;51.464;-0.066;2022-11-23T12:00:45;98969.31;;;10.23;100.00
60355;BME280;46198;51.464;-0.066;2022-11-23T12:03:17;98970.75;;;10.30;100.00
60355;BME280;46198;51.464;-0.066;2022-11-23T12:06:16;98977.03;;;10.41;100.00
60355;BME280;46198;51.464;-0.066;2022-11-23T12:08:58;98986.28;;;10.40;100.00
60355;BME280;46198;51.464;-0.066;2022-11-23T12:11:28;98987.13;;;10.51;100.00
60355;BME280;46198;51.464;-0.066;2022-11-23T12:14:02;98990.69;;;10.56;100.00
60355;BME280;46198;51.464;-0.066;2022-11-23T12:20:22;99000.22;;;10.64;100.00
60355;BME280;46198;51.464;-0.066;2022-11-23T12:23:29;99009.19;;;10.75;100.00
60355;BME280;46198;51.464;-0.066;2022-11-23T12:26:18;99003.78;;;10.80;100.00
60355;BME280;46198;51.464;-0.066;2022-11-23T12:28:59;98997.34;;;10.91;100.00
60355;BME280;46198;51.464;-0.066;2022-11-23T12:31:40;98995.69;;;10.95;100.00
60355;BME280;46198;51.464;-0.066;2022-11-23T12:34:29;99009.00;;;11.02;100.00
60355;BME280;46198;51.464;-0.066;2022-11-23T12:37:18;99020.97;;;11.01;100.00
60355;BME280;46198;51.464;-0.066;2022-11-23T12:40:18;99030.22;;;11.10;100.00
60355;BME280;46198;51.464;-0.066;2022-11-23T12:42:56;99027.81;;;11.14;100.00
60355;BME280;46198;51.464;-0.066;2022-11-23T12:45:45;99036.22;;;11.12;100.00
60355;BME280;46198;51.464;-0.066;2022-11-23T12:48:31;99039.22;;;11.21;100.00
60355;BME280;46198;51.464;-0.066;2022-11-23T12:51:09;99022.38;;;11.29;100.00
60355;BME280;46198;51.464;-0.066;2022-11-23T12:53:47;99027.56;;;11.25;100.00
60355;BME280;46198;51.464;-0.066;2022-11-23T12:56:25;99047.09;;;11.22;100.00
60355;BME280;46198;51.464;-0.066;2022-11-23T12:58:58;99050.66;;;11.28;100.00
60355;BME280;46198;51.464;-0.066;2022-11-23T13:01:30;99042.50;;;11.28;100.00
60355;BME280;46198;51.464;-0.066;2022-11-23T13:04:22;99056.34;;;11.21;100.00
60355;BME280;46198;51.464;-0.066;2022-11-23T13:07:21;99050.66;;;11.28;100.00
60355;BME280;46198;51.464;-0.066;2022-11-23T13:16:16;99072.94;;;11.30;98.39
60355;BME280;46198;51.464;-0.066;2022-11-23T13:19:06;99072.38;;;11.28;100.00
60355;BME280;46198;51.464;-0.066;2022-11-23T13:21:40;99070.72;;;11.17;97.77
60355;BME280;46198;51.464;-0.066;2022-11-23T13:24:29;99081.59;;;11.17;94.29
60355;BME280;46198;51.464;-0.066;2022-11-23T13:30:25;99091.06;;;11.09;95.43